sensor_id;sensor_type;location;lat;lon;timestamp;P1;durP1;ratioP1;P2;durP2;ratioP2
68479;SDS011;55469;48.934;12.050;2023-10-19T00:00:47;10.07;;;6.47;;
68479;SDS011;55469;48.934;12.050;2023-10-19T00:03:18;9.13;;;5.90;;
68479;SDS011;55469;48.934;12.050;2023-10-19T00:05:45;9.93;;;6.65;;
68479;SDS011;55469;48.934;12.050;2023-10-19T00:08:13;7.63;;;5.60;;
68479;SDS011;55469;48.934;12.050;2023-10-19T00:10:49;9.55;;;6.18;;
68479;SDS011;55469;48.934;12.050;2023-10-19T00:13:40;8.85;;;5.72;;
68479;SDS011;55469;48.934;12.050;2023-10-19T00:16:09;11.50;;;6.60;;
68479;SDS011;55469;48.934;12.050;2023-10-19T00:18:42;11.43;;;6.80;;
68479;SDS011;55469;48.934;12.050;2023-10-19T00:21:09;8.82;;;6.07;;
68479;SDS011;55469;48.934;12.050;2023-10-19T00:23:50;9.63;;;6.53;;
68479;SDS011;55469;48.934;12.050;2023-10-19T00:26:22;11.43;;;7.10;;
68479;SDS011;55469;48.934;12.050;2023-10-19T00:28:54;10.30;;;6.68;;
68479;SDS011;55469;48.934;12.050;2023-10-19T00:31:21;9.70;;;6.65;;
68479;SDS011;55469;48.934;12.050;2023-10-19T00:33:52;10.02;;;6.68;;
68479;SDS011;55469;48.934;12.050;2023-10-19T00:36:22;9.43;;;6.57;;
68479;SDS011;55469;48.934;12.050;2023-10-19T00:38:50;9.27;;;6.32;;
68479;SDS011;55469;48.934;12.050;2023-10-19T00:41:21;8.82;;;6.15;;
68479;SDS011;55469;48.934;12.050;2023-10-19T00:43:54;9.70;;;6.65;;
68479;SDS011;55469;48.934;12.050;2023-10-19T00:46:41;10.00;;;6.20;;
68479;SDS011;55469;48.934;12.050;2023-10-19T00:49:07;8.35;;;5.93;;
68479;SDS011;55469;48.934;12.050;2023-10-19T00:54:14;9.00;;;6.20;;
68479;SDS011;55469;48.934;12.050;2023-10-19T00:57:01;10.20;;;6.65;;
68479;SDS011;55469;48.934;12.050;2023-10-19T00:59:33;9.82;;;6.68;;
68479;SDS011;55469;48.934;12.050;2023-10-19T01:02:18;9.95;;;6.30;;
68479;SDS011;55469;48.934;12.050;2023-10-19T01:05:06;10.43;;;6.53;;
68479;SDS011;55469;48.934;12.050;2023-10-19T01:07:38;10.10;;;6.32;;
68479;SDS011;55469;48.934;12.050;2023-10-19T01:10:04;9.35;;;6.63;;
68479;SDS011;55469;48.934;12.050;2023-10-19T01:12:46;9.65;;;6.20;;
68479;SDS011;55469;48.934;12.050;2023-10-19T01:15:16;10.45;;;6.32;;
68479;SDS011;55469;48.934;12.050;2023-10-19T01:17:49;9.85;;;6.38;;
68479;SDS011;55469;48.934;12.050;2023-10-19T01:20:19;9.50;;;6.40;;
68479;SDS011;55469;48.934;12.050;2023-10-19T01:22:58;10.77;;;7.10;;
68479;SDS011;55469;48.934;12.050;2023-10-19T01:28:15;11.07;;;6.55;;
68479;SDS011;55469;48.934;12.050;2023-10-19T01:30:44;9.65;;;6.85;;
68479;SDS011;55469;48.934;12.050;2023-10-19T01:33:11;9.50;;;6.45;;
68479;SDS011;55469;48.934;12.050;2023-10-19T01:38:31;9.57;;;6.10;;
68479;SDS011;55469;48.934;12.050;2023-10-19T01:41:00;9.80;;;6.45;;
68479;SDS011;55469;48.934;12.050;2023-10-19T01:43:36;8.55;;;6.13;;
68479;SDS011;55469;48.934;12.050;2023-10-19T01:46:05;8.45;;;6.22;;
68479;SDS011;55469;48.934;12.050;2023-10-19T01:48:38;9.45;;;6.22;;
68479;SDS011;55469;48.934;12.050;2023-10-19T01:51:09;9.68;;;6.63;;
68479;SDS011;55469;48.934;12.050;2023-10-19T01:53:39;10.52;;;6.72;;
68479;SDS011;55469;48.934;12.050;2023-10-19T01:56:09;9.20;;;6.18;;
68479;SDS011;55469;48.934;12.050;2023-10-19T01:58:38;11.13;;;7.13;;
68479;SDS011;55469;48.934;12.050;2023-10-19T02:01:05;11.25;;;6.85;;
68479;SDS011;55469;48.934;12.050;2023-10-19T02:03:38;10.98;;;6.47;;
68479;SDS011;55469;48.934;12.050;2023-10-19T02:06:08;10.40;;;6.50;;
68479;SDS011;55469;48.934;12.050;2023-10-19T02:11:23;8.60;;;5.85;;
68479;SDS011;55469;48.934;12.050;2023-10-19T02:13:51;9.50;;;6.18;;
68479;SDS011;55469;48.934;12.050;2023-10-19T02:16:20;9.68;;;7.03;;
68479;SDS011;55469;48.934;12.050;2023-10-19T02:18:50;9.70;;;6.53;;
68479;SDS011;55469;48.934;12.050;2023-10-19T02:21:16;10.25;;;6.40;;
68479;SDS011;55469;48.934;12.050;2023-10-19T02:23:47;10.48;;;6.47;;
68479;SDS011;55469;48.934;12.050;2023-10-19T02:26:16;9.95;;;6.18;;
68479;SDS011;55469;48.934;12.050;2023-10-19T02:28:47;8.18;;;5.97;;
68479;SDS011;55469;48.934;12.050;2023-10-19T02:31:16;9.43;;;6.18;;
68479;SDS011;55469;48.934;12.050;2023-10-19T02:33:50;9.88;;;6.25;;
68479;SDS011;55469;48.934;12.050;2023-10-19T02:36:20;9.02;;;6.50;;
68479;SDS011;55469;48.934;12.050;2023-10-19T02:38:46;9.77;;;6.43;;
68479;SDS011;55469;48.934;12.050;2023-10-19T02:41:16;10.32;;;6.50;;
68479;SDS011;55469;48.934;12.050;2023-10-19T02:43:43;8.38;;;6.18;;
68479;SDS011;55469;48.934;12.050;2023-10-19T02:46:16;7.93;;;6.35;;
68479;SDS011;55469;48.934;12.050;2023-10-19T02:48:43;10.18;;;6.50;;
68479;SDS011;55469;48.934;12.050;2023-10-19T02:51:12;9.35;;;6.28;;
68479;SDS011;55469;48.934;12.050;2023-10-19T02:53:41;8.80;;;6.20;;
68479;SDS011;55469;48.934;12.050;2023-10-19T02:56:13;9.55;;;6.18;;
68479;SDS011;55469;48.934;12.050;2023-10-19T02:58:48;9.65;;;6.55;;
68479;SDS011;55469;48.934;12.050;2023-10-19T03:01:15;8.23;;;5.97;;
68479;SDS011;55469;48.934;12.050;2023-10-19T03:03:53;9.20;;;6.13;;
68479;SDS011;55469;48.934;12.050;2023-10-19T03:06:20;9.20;;;6.32;;
68479;SDS011;55469;48.934;12.050;2023-10-19T03:08:47;9.65;;;6.72;;
68479;SDS011;55469;48.934;12.050;2023-10-19T03:11:22;9.90;;;6.45;;
68479;SDS011;55469;48.934;12.050;2023-10-19T03:13:50;8.90;;;5.95;;
68479;SDS011;55469;48.934;12.050;2023-10-19T03:16:17;8.88;;;6.20;;
68479;SDS011;55469;48.934;12.050;2023-10-19T03:18:44;9.00;;;6.25;;
68479;SDS011;55469;48.934;12.050;2023-10-19T03:21:10;9.05;;;5.97;;
68479;SDS011;55469;48.934;12.050;2023-10-19T03:23:36;7.97;;;5.85;;
68479;SDS011;55469;48.934;12.050;2023-10-19T03:26:03;9.10;;;6.03;;
68479;SDS011;55469;48.934;12.050;2023-10-19T03:28:47;8.60;;;5.85;;
68479;SDS011;55469;48.934;12.050;2023-10-19T03:31:19;8.43;;;5.80;;
68479;SDS011;55469;48.934;12.050;2023-10-19T03:33:52;7.47;;;5.93;;
68479;SDS011;55469;48.934;12.050;2023-10-19T03:36:24;7.80;;;6.03;;
68479;SDS011;55469;48.934;12.050;2023-10-19T03:38:51;8.70;;;6.18;;
68479;SDS011;55469;48.934;12.050;2023-10-19T03:41:19;8.57;;;6.00;;
68479;SDS011;55469;48.934;12.050;2023-10-19T03:43:51;8.73;;;5.90;;
68479;SDS011;55469;48.934;12.050;2023-10-19T03:46:22;8.95;;;6.63;;
68479;SDS011;55469;48.934;12.050;2023-10-19T03:48:59;9.43;;;6.50;;
68479;SDS011;55469;48.934;12.050;2023-10-19T03:51:38;11.35;;;7.00;;
68479;SDS011;55469;48.934;12.050;2023-10-19T03:54:05;10.45;;;7.03;;
68479;SDS011;55469;48.934;12.050;2023-10-19T03:56:46;7.68;;;6.25;;
68479;SDS011;55469;48.934;12.050;2023-10-19T03:59:15;8.85;;;6.22;;
68479;SDS011;55469;48.934;12.050;2023-10-19T04:01:42;9.32;;;6.70;;
68479;SDS011;55469;48.934;12.050;2023-10-19T04:04:08;10.70;;;6.95;;
68479;SDS011;55469;48.934;12.050;2023-10-19T04:06:38;9.70;;;6.80;;
68479;SDS011;55469;48.934;12.050;2023-10-19T04:09:05;9.45;;;6.03;;
68479;SDS011;55469;48.934;12.050;2023-10-19T04:11:31;9.15;;;6.63;;
68479;SDS011;55469;48.934;12.050;2023-10-19T04:14:01;9.75;;;6.60;;
68479;SDS011;55469;48.934;12.050;2023-10-19T04:16:29;8.77;;;6.40;;
68479;SDS011;55469;48.934;12.050;2023-10-19T04:18:56;9.27;;;6.45;;
68479;SDS011;55469;48.934;12.050;2023-10-19T04:21:23;8.45;;;6.32;;
68479;SDS011;55469;48.934;12.050;2023-10-19T04:23:49;9.85;;;6.53;;
68479;SDS011;55469;48.934;12.050;2023-10-19T04:26:15;9.18;;;6.20;;
68479;SDS011;55469;48.934;12.050;2023-10-19T04:28:43;9.57;;;7.03;;
68479;SDS011;55469;48.934;12.050;2023-10-19T04:31:10;10.25;;;6.93;;
68479;SDS011;55469;48.934;12.050;2023-10-19T04:33:39;9.88;;;6.75;;
68479;SDS011;55469;48.934;12.050;2023-10-19T04:36:08;10.30;;;7.32;;
68479;SDS011;55469;48.934;12.050;2023-10-19T04:38:36;11.20;;;6.97;;
68479;SDS011;55469;48.934;12.050;2023-10-19T04:41:03;9.20;;;6.53;;
68479;SDS011;55469;48.934;12.050;2023-10-19T04:43:36;9.98;;;6.68;;
68479;SDS011;55469;48.934;12.050;2023-10-19T04:46:04;9.73;;;6.85;;
68479;SDS011;55469;48.934;12.050;2023-10-19T04:48:38;9.87;;;6.90;;
68479;SDS011;55469;48.934;12.050;2023-10-19T04:51:05;8.75;;;6.13;;
68479;SDS011;55469;48.934;12.050;2023-10-19T04:53:32;9.57;;;6.85;;
68479;SDS011;55469;48.934;12.050;2023-10-19T04:55:58;10.15;;;7.05;;
68479;SDS011;55469;48.934;12.050;2023-10-19T04:58:27;9.55;;;6.72;;
68479;SDS011;55469;48.934;12.050;2023-10-19T05:00:53;9.98;;;7.05;;
68479;SDS011;55469;48.934;12.050;2023-10-19T05:03:19;11.23;;;7.07;;
68479;SDS011;55469;48.934;12.050;2023-10-19T05:05:45;8.90;;;6.05;;
68479;SDS011;55469;48.934;12.050;2023-10-19T05:08:11;8.70;;;6.93;;
68479;SDS011;55469;48.934;12.050;2023-10-19T05:10:37;9.25;;;6.32;;
68479;SDS011;55469;48.934;12.050;2023-10-19T05:13:03;9.25;;;6.85;;
68479;SDS011;55469;48.934;12.050;2023-10-19T05:15:29;9.82;;;6.85;;
68479;SDS011;55469;48.934;12.050;2023-10-19T05:17:55;9.80;;;7.13;;
68479;SDS011;55469;48.934;12.050;2023-10-19T05:20:21;11.13;;;7.13;;
68479;SDS011;55469;48.934;12.050;2023-10-19T05:22:48;10.27;;;7.22;;
68479;SDS011;55469;48.934;12.050;2023-10-19T05:25:14;10.50;;;7.03;;
68479;SDS011;55469;48.934;12.050;2023-10-19T05:27:40;11.20;;;7.43;;
68479;SDS011;55469;48.934;12.050;2023-10-19T05:30:07;10.77;;;7.25;;
68479;SDS011;55469;48.934;12.050;2023-10-19T05:32:36;10.43;;;6.75;;
68479;SDS011;55469;48.934;12.050;2023-10-19T05:35:02;11.00;;;6.95;;
68479;SDS011;55469;48.934;12.050;2023-10-19T05:37:30;9.98;;;6.90;;
68479;SDS011;55469;48.934;12.050;2023-10-19T05:39:56;9.50;;;6.50;;
68479;SDS011;55469;48.934;12.050;2023-10-19T05:42:22;8.38;;;6.20;;
68479;SDS011;55469;48.934;12.050;2023-10-19T05:44:48;8.45;;;6.60;;
68479;SDS011;55469;48.934;12.050;2023-10-19T05:47:13;10.20;;;6.57;;
68479;SDS011;55469;48.934;12.050;2023-10-19T05:49:39;9.77;;;7.32;;
68479;SDS011;55469;48.934;12.050;2023-10-19T05:52:05;9.63;;;6.53;;
68479;SDS011;55469;48.934;12.050;2023-10-19T05:54:30;9.65;;;7.10;;
68479;SDS011;55469;48.934;12.050;2023-10-19T05:56:56;9.35;;;6.60;;
68479;SDS011;55469;48.934;12.050;2023-10-19T05:59:23;10.38;;;7.25;;
68479;SDS011;55469;48.934;12.050;2023-10-19T06:01:51;9.18;;;6.60;;
68479;SDS011;55469;48.934;12.050;2023-10-19T06:04:17;8.77;;;6.75;;
68479;SDS011;55469;48.934;12.050;2023-10-19T06:06:43;9.18;;;6.85;;
68479;SDS011;55469;48.934;12.050;2023-10-19T06:09:09;10.75;;;7.50;;
68479;SDS011;55469;48.934;12.050;2023-10-19T06:11:35;9.88;;;7.03;;
68479;SDS011;55469;48.934;12.050;2023-10-19T06:14:07;10.93;;;7.40;;
68479;SDS011;55469;48.934;12.050;2023-10-19T06:16:33;11.32;;;7.18;;
68479;SDS011;55469;48.934;12.050;2023-10-19T06:18:59;10.35;;;7.18;;
68479;SDS011;55469;48.934;12.050;2023-10-19T06:21:25;10.32;;;7.10;;
68479;SDS011;55469;48.934;12.050;2023-10-19T06:23:51;10.32;;;7.07;;
68479;SDS011;55469;48.934;12.050;2023-10-19T06:26:18;9.50;;;6.80;;
68479;SDS011;55469;48.934;12.050;2023-10-19T06:28:44;9.77;;;6.80;;
68479;SDS011;55469;48.934;12.050;2023-10-19T06:31:10;9.85;;;7.03;;
68479;SDS011;55469;48.934;12.050;2023-10-19T06:33:36;9.50;;;6.72;;
68479;SDS011;55469;48.934;12.050;2023-10-19T06:36:06;10.07;;;7.10;;
68479;SDS011;55469;48.934;12.050;2023-10-19T06:38:32;10.07;;;6.93;;
68479;SDS011;55469;48.934;12.050;2023-10-19T06:40:59;9.80;;;6.82;;
68479;SDS011;55469;48.934;12.050;2023-10-19T06:43:28;9.82;;;7.20;;
68479;SDS011;55469;48.934;12.050;2023-10-19T06:45:55;8.77;;;6.60;;
68479;SDS011;55469;48.934;12.050;2023-10-19T06:48:22;9.98;;;6.82;;
68479;SDS011;55469;48.934;12.050;2023-10-19T06:50:48;10.10;;;7.40;;
68479;SDS011;55469;48.934;12.050;2023-10-19T06:53:15;10.70;;;7.18;;
68479;SDS011;55469;48.934;12.050;2023-10-19T06:55:40;10.55;;;7.45;;
68479;SDS011;55469;48.934;12.050;2023-10-19T06:58:06;10.93;;;7.18;;
68479;SDS011;55469;48.934;12.050;2023-10-19T07:00:34;9.02;;;6.75;;
68479;SDS011;55469;48.934;12.050;2023-10-19T07:03:07;9.38;;;7.38;;
68479;SDS011;55469;48.934;12.050;2023-10-19T07:05:33;11.18;;;7.53;;
68479;SDS011;55469;48.934;12.050;2023-10-19T07:07:59;9.70;;;7.13;;
68479;SDS011;55469;48.934;12.050;2023-10-19T07:10:27;9.82;;;6.95;;
68479;SDS011;55469;48.934;12.050;2023-10-19T07:12:54;9.45;;;7.05;;
68479;SDS011;55469;48.934;12.050;2023-10-19T07:15:22;9.50;;;6.95;;
68479;SDS011;55469;48.934;12.050;2023-10-19T07:17:50;10.68;;;6.97;;
68479;SDS011;55469;48.934;12.050;2023-10-19T07:20:19;9.52;;;6.90;;
68479;SDS011;55469;48.934;12.050;2023-10-19T07:23:02;10.50;;;7.03;;
68479;SDS011;55469;48.934;12.050;2023-10-19T07:25:35;9.98;;;7.38;;
68479;SDS011;55469;48.934;12.050;2023-10-19T07:28:11;10.35;;;7.30;;
68479;SDS011;55469;48.934;12.050;2023-10-19T07:30:40;11.32;;;7.47;;
68479;SDS011;55469;48.934;12.050;2023-10-19T07:33:10;11.60;;;7.68;;
68479;SDS011;55469;48.934;12.050;2023-10-19T07:38:09;11.77;;;7.28;;
68479;SDS011;55469;48.934;12.050;2023-10-19T07:40:35;12.30;;;7.45;;
68479;SDS011;55469;48.934;12.050;2023-10-19T07:43:02;12.77;;;7.07;;
68479;SDS011;55469;48.934;12.050;2023-10-19T07:45:29;11.13;;;7.13;;
68479;SDS011;55469;48.934;12.050;2023-10-19T07:47:56;12.48;;;7.38;;
68479;SDS011;55469;48.934;12.050;2023-10-19T07:50:23;11.65;;;7.47;;
68479;SDS011;55469;48.934;12.050;2023-10-19T07:52:50;12.73;;;7.53;;
68479;SDS011;55469;48.934;12.050;2023-10-19T07:55:17;11.80;;;7.80;;
68479;SDS011;55469;48.934;12.050;2023-10-19T07:57:48;10.30;;;6.95;;
68479;SDS011;55469;48.934;12.050;2023-10-19T08:00:15;10.68;;;7.38;;
68479;SDS011;55469;48.934;12.050;2023-10-19T08:02:43;10.98;;;7.65;;
68479;SDS011;55469;48.934;12.050;2023-10-19T08:05:12;10.40;;;7.45;;
68479;SDS011;55469;48.934;12.050;2023-10-19T08:07:40;11.55;;;7.55;;
68479;SDS011;55469;48.934;12.050;2023-10-19T08:10:11;11.00;;;7.35;;
68479;SDS011;55469;48.934;12.050;2023-10-19T08:12:39;11.43;;;7.45;;
68479;SDS011;55469;48.934;12.050;2023-10-19T08:15:09;11.50;;;7.90;;
68479;SDS011;55469;48.934;12.050;2023-10-19T08:17:40;15.38;;;8.38;;
68479;SDS011;55469;48.934;12.050;2023-10-19T08:20:08;12.02;;;8.18;;
68479;SDS011;55469;48.934;12.050;2023-10-19T08:22:52;10.35;;;7.50;;
68479;SDS011;55469;48.934;12.050;2023-10-19T08:25:22;11.57;;;8.18;;
68479;SDS011;55469;48.934;12.050;2023-10-19T08:27:48;11.32;;;7.80;;
68479;SDS011;55469;48.934;12.050;2023-10-19T08:30:17;12.48;;;7.68;;
68479;SDS011;55469;48.934;12.050;2023-10-19T08:32:46;10.55;;;7.88;;
68479;SDS011;55469;48.934;12.050;2023-10-19T08:35:13;10.93;;;7.82;;
68479;SDS011;55469;48.934;12.050;2023-10-19T08:37:40;10.43;;;7.32;;
68479;SDS011;55469;48.934;12.050;2023-10-19T08:40:07;13.30;;;7.72;;
68479;SDS011;55469;48.934;12.050;2023-10-19T08:42:40;12.05;;;8.00;;
68479;SDS011;55469;48.934;12.050;2023-10-19T08:45:13;12.25;;;8.13;;
68479;SDS011;55469;48.934;12.050;2023-10-19T08:48:00;12.20;;;8.32;;
68479;SDS011;55469;48.934;12.050;2023-10-19T08:50:28;11.10;;;7.68;;
68479;SDS011;55469;48.934;12.050;2023-10-19T08:52:56;10.63;;;7.75;;
68479;SDS011;55469;48.934;12.050;2023-10-19T08:55:27;11.07;;;7.72;;
68479;SDS011;55469;48.934;12.050;2023-10-19T08:57:55;12.65;;;8.32;;
68479;SDS011;55469;48.934;12.050;2023-10-19T09:00:24;11.30;;;8.25;;
68479;SDS011;55469;48.934;12.050;2023-10-19T09:02:51;9.23;;;7.57;;
68479;SDS011;55469;48.934;12.050;2023-10-19T09:05:17;10.70;;;7.97;;
68479;SDS011;55469;48.934;12.050;2023-10-19T09:07:51;11.50;;;8.10;;
68479;SDS011;55469;48.934;12.050;2023-10-19T09:10:21;11.93;;;7.88;;
68479;SDS011;55469;48.934;12.050;2023-10-19T09:13:05;10.85;;;7.85;;
68479;SDS011;55469;48.934;12.050;2023-10-19T09:15:38;10.63;;;7.68;;
68479;SDS011;55469;48.934;12.050;2023-10-19T09:20:42;11.23;;;8.07;;
68479;SDS011;55469;48.934;12.050;2023-10-19T09:23:43;11.38;;;7.70;;
68479;SDS011;55469;48.934;12.050;2023-10-19T09:26:09;10.55;;;7.57;;
68479;SDS011;55469;48.934;12.050;2023-10-19T09:28:37;13.52;;;8.10;;
68479;SDS011;55469;48.934;12.050;2023-10-19T09:31:04;11.98;;;7.35;;
68479;SDS011;55469;48.934;12.050;2023-10-19T09:33:34;11.98;;;8.32;;
68479;SDS011;55469;48.934;12.050;2023-10-19T09:36:01;13.10;;;8.52;;
68479;SDS011;55469;48.934;12.050;2023-10-19T09:38:37;10.93;;;7.82;;
68479;SDS011;55469;48.934;12.050;2023-10-19T09:41:13;10.20;;;8.15;;
68479;SDS011;55469;48.934;12.050;2023-10-19T09:43:46;13.02;;;8.95;;
68479;SDS011;55469;48.934;12.050;2023-10-19T09:46:20;11.18;;;8.15;;
68479;SDS011;55469;48.934;12.050;2023-10-19T09:48:49;13.77;;;8.07;;
68479;SDS011;55469;48.934;12.050;2023-10-19T09:51:15;13.20;;;9.25;;
68479;SDS011;55469;48.934;12.050;2023-10-19T09:53:45;12.57;;;8.15;;
68479;SDS011;55469;48.934;12.050;2023-10-19T09:56:23;11.95;;;8.57;;
68479;SDS011;55469;48.934;12.050;2023-10-19T09:59:00;11.38;;;7.75;;
68479;SDS011;55469;48.934;12.050;2023-10-19T10:04:38;12.38;;;8.48;;
68479;SDS011;55469;48.934;12.050;2023-10-19T10:07:05;11.85;;;7.65;;
68479;SDS011;55469;48.934;12.050;2023-10-19T10:12:19;12.15;;;8.63;;
68479;SDS011;55469;48.934;12.050;2023-10-19T10:15:02;13.52;;;8.07;;
68479;SDS011;55469;48.934;12.050;2023-10-19T10:17:36;10.43;;;7.95;;
68479;SDS011;55469;48.934;12.050;2023-10-19T10:22:43;11.80;;;8.23;;
68479;SDS011;55469;48.934;12.050;2023-10-19T10:25:28;12.27;;;8.00;;
68479;SDS011;55469;48.934;12.050;2023-10-19T10:27:55;11.52;;;7.90;;
68479;SDS011;55469;48.934;12.050;2023-10-19T10:30:20;11.55;;;8.45;;
68479;SDS011;55469;48.934;12.050;2023-10-19T10:32:48;11.60;;;8.60;;
68479;SDS011;55469;48.934;12.050;2023-10-19T10:38:05;12.18;;;8.82;;
68479;SDS011;55469;48.934;12.050;2023-10-19T10:40:43;11.90;;;8.50;;
68479;SDS011;55469;48.934;12.050;2023-10-19T10:43:09;12.50;;;8.82;;
68479;SDS011;55469;48.934;12.050;2023-10-19T10:45:35;13.48;;;9.15;;
68479;SDS011;55469;48.934;12.050;2023-10-19T10:48:01;11.90;;;8.75;;
68479;SDS011;55469;48.934;12.050;2023-10-19T10:50:29;13.88;;;9.75;;
68479;SDS011;55469;48.934;12.050;2023-10-19T10:52:55;13.18;;;8.98;;
68479;SDS011;55469;48.934;12.050;2023-10-19T10:55:22;13.32;;;9.20;;
68479;SDS011;55469;48.934;12.050;2023-10-19T10:57:50;12.82;;;8.70;;
68479;SDS011;55469;48.934;12.050;2023-10-19T11:00:16;12.32;;;8.55;;
68479;SDS011;55469;48.934;12.050;2023-10-19T11:02:44;12.52;;;8.35;;
68479;SDS011;55469;48.934;12.050;2023-10-19T11:05:12;11.60;;;8.50;;
68479;SDS011;55469;48.934;12.050;2023-10-19T11:07:41;12.52;;;8.57;;
68479;SDS011;55469;48.934;12.050;2023-10-19T11:10:33;13.50;;;9.25;;
68479;SDS011;55469;48.934;12.050;2023-10-19T11:13:03;12.10;;;8.50;;
68479;SDS011;55469;48.934;12.050;2023-10-19T11:15:31;11.50;;;8.60;;
68479;SDS011;55469;48.934;12.050;2023-10-19T11:18:02;11.77;;;8.48;;
68479;SDS011;55469;48.934;12.050;2023-10-19T11:20:28;12.40;;;8.95;;
68479;SDS011;55469;48.934;12.050;2023-10-19T11:22:54;14.27;;;8.95;;
68479;SDS011;55469;48.934;12.050;2023-10-19T11:25:23;11.20;;;8.68;;
68479;SDS011;55469;48.934;12.050;2023-10-19T11:27:53;11.73;;;8.30;;
68479;SDS011;55469;48.934;12.050;2023-10-19T11:30:26;12.65;;;8.88;;
68479;SDS011;55469;48.934;12.050;2023-10-19T11:32:56;12.98;;;9.10;;
68479;SDS011;55469;48.934;12.050;2023-10-19T11:35:27;12.48;;;8.70;;
68479;SDS011;55469;48.934;12.050;2023-10-19T11:37:56;12.57;;;8.55;;
68479;SDS011;55469;48.934;12.050;2023-10-19T11:40:24;11.65;;;8.27;;
68479;SDS011;55469;48.934;12.050;2023-10-19T11:42:52;13.27;;;9.23;;
68479;SDS011;55469;48.934;12.050;2023-10-19T11:45:21;11.32;;;8.63;;
68479;SDS011;55469;48.934;12.050;2023-10-19T11:47:48;12.13;;;9.05;;
68479;SDS011;55469;48.934;12.050;2023-10-19T11:50:15;12.43;;;8.80;;
68479;SDS011;55469;48.934;12.050;2023-10-19T11:52:43;11.88;;;8.93;;
68479;SDS011;55469;48.934;12.050;2023-10-19T11:55:13;12.57;;;8.68;;
68479;SDS011;55469;48.934;12.050;2023-10-19T11:57:40;12.75;;;8.60;;
68479;SDS011;55469;48.934;12.050;2023-10-19T12:00:08;12.45;;;8.93;;
68479;SDS011;55469;48.934;12.050;2023-10-19T12:02:46;13.43;;;8.75;;
68479;SDS011;55469;48.934;12.050;2023-10-19T12:05:13;12.73;;;9.00;;
68479;SDS011;55469;48.934;12.050;2023-10-19T12:07:39;11.65;;;8.90;;
68479;SDS011;55469;48.934;12.050;2023-10-19T12:10:07;13.05;;;8.93;;
68479;SDS011;55469;48.934;12.050;2023-10-19T12:12:35;12.82;;;8.68;;
68479;SDS011;55469;48.934;12.050;2023-10-19T12:15:02;12.68;;;8.57;;
68479;SDS011;55469;48.934;12.050;2023-10-19T12:17:30;11.88;;;8.77;;
68479;SDS011;55469;48.934;12.050;2023-10-19T12:19:57;13.50;;;9.40;;
68479;SDS011;55469;48.934;12.050;2023-10-19T12:22:22;13.20;;;9.43;;
68479;SDS011;55469;48.934;12.050;2023-10-19T12:24:53;12.30;;;8.88;;
68479;SDS011;55469;48.934;12.050;2023-10-19T12:27:21;12.23;;;8.80;;
68479;SDS011;55469;48.934;12.050;2023-10-19T12:29:49;12.30;;;9.10;;
68479;SDS011;55469;48.934;12.050;2023-10-19T12:32:17;12.45;;;9.45;;
68479;SDS011;55469;48.934;12.050;2023-10-19T12:34:43;12.88;;;9.20;;
68479;SDS011;55469;48.934;12.050;2023-10-19T12:37:09;13.27;;;9.52;;
68479;SDS011;55469;48.934;12.050;2023-10-19T12:39:37;12.75;;;9.50;;
68479;SDS011;55469;48.934;12.050;2023-10-19T12:42:14;13.18;;;9.20;;
68479;SDS011;55469;48.934;12.050;2023-10-19T12:44:40;14.20;;;9.73;;
68479;SDS011;55469;48.934;12.050;2023-10-19T12:47:07;13.02;;;9.35;;
68479;SDS011;55469;48.934;12.050;2023-10-19T12:49:38;12.85;;;9.50;;
68479;SDS011;55469;48.934;12.050;2023-10-19T12:52:10;11.35;;;8.55;;
68479;SDS011;55469;48.934;12.050;2023-10-19T12:54:36;13.77;;;9.38;;
68479;SDS011;55469;48.934;12.050;2023-10-19T12:57:03;13.27;;;9.70;;
68479;SDS011;55469;48.934;12.050;2023-10-19T12:59:32;12.32;;;8.82;;
68479;SDS011;55469;48.934;12.050;2023-10-19T13:02:02;11.43;;;8.82;;
68479;SDS011;55469;48.934;12.050;2023-10-19T13:04:29;12.48;;;9.10;;
68479;SDS011;55469;48.934;12.050;2023-10-19T13:06:57;14.15;;;9.35;;
68479;SDS011;55469;48.934;12.050;2023-10-19T13:09:24;13.27;;;9.45;;
68479;SDS011;55469;48.934;12.050;2023-10-19T13:11:56;12.82;;;9.55;;
68479;SDS011;55469;48.934;12.050;2023-10-19T13:14:32;13.77;;;9.73;;
68479;SDS011;55469;48.934;12.050;2023-10-19T13:16:59;14.63;;;10.27;;
68479;SDS011;55469;48.934;12.050;2023-10-19T13:19:25;12.13;;;8.85;;
68479;SDS011;55469;48.934;12.050;2023-10-19T13:21:51;14.13;;;9.52;;
68479;SDS011;55469;48.934;12.050;2023-10-19T13:24:17;13.32;;;9.98;;
68479;SDS011;55469;48.934;12.050;2023-10-19T13:26:47;15.27;;;9.68;;
68479;SDS011;55469;48.934;12.050;2023-10-19T13:29:13;12.85;;;8.82;;
68479;SDS011;55469;48.934;12.050;2023-10-19T13:31:42;14.73;;;9.70;;
68479;SDS011;55469;48.934;12.050;2023-10-19T13:34:14;14.27;;;9.38;;
68479;SDS011;55469;48.934;12.050;2023-10-19T13:36:43;13.27;;;9.27;;
68479;SDS011;55469;48.934;12.050;2023-10-19T13:39:11;13.07;;;9.23;;
68479;SDS011;55469;48.934;12.050;2023-10-19T13:41:41;13.55;;;9.23;;
68479;SDS011;55469;48.934;12.050;2023-10-19T13:44:08;10.65;;;8.50;;
68479;SDS011;55469;48.934;12.050;2023-10-19T13:46:33;13.95;;;9.77;;
68479;SDS011;55469;48.934;12.050;2023-10-19T13:48:59;12.13;;;9.48;;
68479;SDS011;55469;48.934;12.050;2023-10-19T13:51:28;14.50;;;9.77;;
68479;SDS011;55469;48.934;12.050;2023-10-19T13:53:54;12.95;;;9.18;;
68479;SDS011;55469;48.934;12.050;2023-10-19T13:56:19;16.05;;;10.63;;
68479;SDS011;55469;48.934;12.050;2023-10-19T13:58:45;13.20;;;9.93;;
68479;SDS011;55469;48.934;12.050;2023-10-19T14:01:12;14.00;;;9.55;;
68479;SDS011;55469;48.934;12.050;2023-10-19T14:03:38;12.93;;;9.82;;
68479;SDS011;55469;48.934;12.050;2023-10-19T14:06:04;14.18;;;9.63;;
68479;SDS011;55469;48.934;12.050;2023-10-19T14:08:30;12.82;;;9.43;;
68479;SDS011;55469;48.934;12.050;2023-10-19T14:11:02;16.90;;;10.07;;
68479;SDS011;55469;48.934;12.050;2023-10-19T14:13:28;13.38;;;9.85;;
68479;SDS011;55469;48.934;12.050;2023-10-19T14:15:54;12.50;;;9.70;;
68479;SDS011;55469;48.934;12.050;2023-10-19T14:18:21;14.07;;;9.55;;
68479;SDS011;55469;48.934;12.050;2023-10-19T14:20:46;14.48;;;10.30;;
68479;SDS011;55469;48.934;12.050;2023-10-19T14:23:13;14.45;;;10.00;;
68479;SDS011;55469;48.934;12.050;2023-10-19T14:25:39;14.68;;;9.82;;
68479;SDS011;55469;48.934;12.050;2023-10-19T14:28:07;14.13;;;9.95;;
68479;SDS011;55469;48.934;12.050;2023-10-19T14:30:32;13.60;;;9.85;;
68479;SDS011;55469;48.934;12.050;2023-10-19T14:32:59;14.95;;;10.45;;
68479;SDS011;55469;48.934;12.050;2023-10-19T14:35:25;13.77;;;9.93;;
68479;SDS011;55469;48.934;12.050;2023-10-19T14:37:52;12.90;;;9.70;;
68479;SDS011;55469;48.934;12.050;2023-10-19T14:40:25;13.18;;;9.25;;
68479;SDS011;55469;48.934;12.050;2023-10-19T14:42:53;12.82;;;9.60;;
68479;SDS011;55469;48.934;12.050;2023-10-19T14:45:20;13.63;;;10.32;;
68479;SDS011;55469;48.934;12.050;2023-10-19T14:47:53;13.63;;;9.77;;
68479;SDS011;55469;48.934;12.050;2023-10-19T14:50:20;14.70;;;9.93;;
68479;SDS011;55469;48.934;12.050;2023-10-19T14:52:48;15.15;;;10.25;;
68479;SDS011;55469;48.934;12.050;2023-10-19T14:55:16;14.40;;;9.65;;
68479;SDS011;55469;48.934;12.050;2023-10-19T14:57:43;13.15;;;10.02;;
68479;SDS011;55469;48.934;12.050;2023-10-19T15:00:15;13.70;;;9.65;;
68479;SDS011;55469;48.934;12.050;2023-10-19T15:02:52;12.15;;;9.27;;
68479;SDS011;55469;48.934;12.050;2023-10-19T15:05:20;15.05;;;10.15;;